Time;durP1;ratioP1;P1;durP2;ratioP2;P2;SDS_P1;SDS_P2;PMS_P1;PMS_P2;Temp;Humidity;BMP_temperature;BMP_pressure;BME280_temperature;BME280_humidity;BME280_pressure;Samples;Min_cycle;Max_cycle;Signal;HPM_P1;HPM_P2
2022/11/14 00:00:56;;;;;;;54.22;19.30;;;0.90;99.90;;;;;;5055182;28;20417;-69
2022/11/14 00:03:23;;;;;;;55.28;18.65;;;0.80;99.90;;;;;;5063871;28;20052;-70
2022/11/14 00:05:51;;;;;;;57.30;19.48;;;0.70;99.90;;;;;;5076212;28;20036;-70
2022/11/14 00:08:22;;;;;;;59.40;18.33;;;0.70;99.90;;;;;;5076169;28;20048;-70
2022/11/14 00:10:50;;;;;;;53.72;19.92;;;0.70;99.90;;;;;;5076134;28;20032;-70
2022/11/14 00:13:19;;;;;;;58.33;18.50;;;0.70;99.90;;;;;;5077712;28;20071;-70
2022/11/14 00:15:55;;;;;;;57.80;18.60;;;0.70;99.90;;;;;;5080072;28;20052;-70
2022/11/14 00:18:23;;;;;;;60.65;19.85;;;0.70;99.90;;;;;;5062302;28;20036;-70
2022/11/14 00:20:51;;;;;;;58.03;20.20;;;0.70;99.90;;;;;;5080324;28;20028;-70
2022/11/14 00:23:20;;;;;;;62.42;19.60;;;0.70;99.90;;;;;;5080241;28;20028;-70
2022/11/14 00:25:47;;;;;;;75.10;21.67;;;0.70;99.90;;;;;;5079840;28;20052;-70
2022/11/14 00:28:15;;;;;;;58.70;19.17;;;0.70;99.90;;;;;;5080137;28;20033;-70
2022/11/14 00:30:47;;;;;;;63.53;21.35;;;0.70;99.90;;;;;;5079844;28;20395;-70
2022/11/14 00:33:15;;;;;;;61.75;19.70;;;0.70;99.90;;;;;;5079630;28;20458;-70
2022/11/14 00:35:54;;;;;;;59.20;19.83;;;0.70;99.90;;;;;;5079881;28;20028;-70
2022/11/14 00:38:22;;;;;;;55.28;18.52;;;0.60;99.90;;;;;;5079881;28;20427;-70
2022/11/14 00:40:49;;;;;;;82.35;19.65;;;0.60;99.90;;;;;;5079683;28;20067;-69
2022/11/14 00:43:17;;;;;;;94.95;20.20;;;0.50;99.90;;;;;;5079645;28;20412;-70
2022/11/14 00:45:47;;;;;;;95.43;18.85;;;0.40;99.90;;;;;;5062559;28;20044;-70
2022/11/14 00:48:15;;;;;;;115.18;21.65;;;0.40;99.90;;;;;;5079743;28;20020;-69
2022/11/14 00:50:43;;;;;;;84.82;17.30;;;0.40;99.90;;;;;;5079486;28;20020;-69
2022/11/14 00:53:11;;;;;;;110.88;20.65;;;0.30;99.90;;;;;;5079763;28;20316;-69
2022/11/14 00:55:39;;;;;;;110.40;20.33;;;0.30;99.90;;;;;;5079369;28;20035;-70
2022/11/14 00:58:06;;;;;;;98.75;17.75;;;0.30;99.90;;;;;;5080112;28;20016;-70
2022/11/14 01:00:34;;;;;;;148.45;19.73;;;0.30;99.90;;;;;;5079831;28;20062;-69
2022/11/14 01:03:01;;;;;;;131.13;18.73;;;0.30;99.90;;;;;;5079107;28;20043;-70
2022/11/14 01:05:29;;;;;;;162.70;22.88;;;0.30;99.90;;;;;;5079692;28;20108;-70
2022/11/14 01:07:56;;;;;;;121.95;19.73;;;0.40;99.90;;;;;;5079280;28;20113;-70
2022/11/14 01:10:24;;;;;;;125.30;19.33;;;0.40;99.90;;;;;;5079447;28;20016;-70
2022/11/14 01:12:51;;;;;;;110.35;19.60;;;0.40;99.90;;;;;;5079151;28;20044;-70
2022/11/14 01:15:18;;;;;;;123.45;23.42;;;0.30;99.90;;;;;;5079617;28;20020;-70
2022/11/14 01:17:46;;;;;;;189.70;21.35;;;0.40;99.90;;;;;;5079336;28;20117;-70
2022/11/14 01:20:14;;;;;;;106.68;17.85;;;0.40;99.90;;;;;;5079446;28;20096;-69
2022/11/14 01:22:41;;;;;;;138.68;22.27;;;0.40;99.90;;;;;;5079534;28;20025;-69
2022/11/14 01:25:09;;;;;;;117.40;17.00;;;0.40;99.90;;;;;;5078386;28;20021;-69
2022/11/14 01:27:36;;;;;;;117.70;19.65;;;0.40;99.90;;;;;;5079284;28;20035;-69
2022/11/14 01:30:05;;;;;;;89.35;17.08;;;0.30;99.90;;;;;;5079319;28;20027;-69
2022/11/14 01:32:32;;;;;;;71.68;15.38;;;0.30;99.90;;;;;;5079299;28;20393;-70
2022/11/14 01:35:00;;;;;;;120.32;18.73;;;0.30;99.90;;;;;;5078621;28;20051;-70
2022/11/14 01:37:27;;;;;;;73.45;15.65;;;0.30;99.90;;;;;;5060825;28;20348;-69
2022/11/14 01:39:54;;;;;;;58.85;13.93;;;0.30;99.90;;;;;;5079116;28;20024;-70
2022/11/14 01:42:23;;;;;;;52.03;13.95;;;0.30;99.90;;;;;;5079109;28;20027;-70
2022/11/14 01:44:53;;;;;;;99.65;15.60;;;0.30;99.90;;;;;;5078545;28;20036;-70
2022/11/14 01:47:29;;;;;;;64.40;15.73;;;0.30;99.90;;;;;;5078637;28;20021;-70
2022/11/14 01:50:06;;;;;;;56.75;15.00;;;0.30;99.90;;;;;;5079037;28;20024;-69
2022/11/14 01:52:40;;;;;;;90.75;16.90;;;0.40;99.90;;;;;;5078547;28;20095;-70
2022/11/14 01:55:09;;;;;;;96.05;16.83;;;0.40;99.90;;;;;;5078282;28;20081;-70
2022/11/14 01:57:41;;;;;;;67.38;15.68;;;0.40;99.90;;;;;;5078202;28;20051;-70
2022/11/14 02:00:11;;;;;;;59.08;15.63;;;0.50;99.90;;;;;;5078161;28;20020;-70
2022/11/14 02:02:38;;;;;;;42.05;13.88;;;0.50;99.90;;;;;;5077910;28;20325;-70
2022/11/14 02:05:16;;;;;;;76.00;17.98;;;0.50;99.90;;;;;;5078601;28;20416;-70
2022/11/14 02:07:44;;;;;;;50.88;14.35;;;0.60;99.90;;;;;;5078661;28;20028;-69
2022/11/14 02:10:19;;;;;;;56.70;15.70;;;0.60;99.90;;;;;;5078002;28;20017;-70
2022/11/14 02:12:47;;;;;;;36.58;14.45;;;0.60;99.90;;;;;;5078697;28;20067;-70
2022/11/14 02:15:15;;;;;;;79.72;18.13;;;0.70;99.90;;;;;;5077874;28;20119;-70
2022/11/14 02:17:43;;;;;;;68.60;15.38;;;0.70;99.90;;;;;;5078040;28;20439;-69
2022/11/14 02:20:11;;;;;;;108.28;17.90;;;0.70;99.90;;;;;;5077775;28;20031;-70
2022/11/14 02:22:42;;;;;;;114.35;16.58;;;0.70;99.90;;;;;;5078411;28;20417;-70
2022/11/14 02:25:11;;;;;;;122.55;16.98;;;0.80;99.90;;;;;;5077669;28;20056;-70
2022/11/14 02:27:39;;;;;;;101.20;15.80;;;0.70;99.90;;;;;;5077712;28;20021;-69
2022/11/14 02:30:11;;;;;;;121.70;17.80;;;0.70;99.90;;;;;;5077546;28;20088;-70
2022/11/14 02:32:38;;;;;;;144.00;17.40;;;0.70;99.90;;;;;;5077634;28;20028;-70
2022/11/14 02:35:06;;;;;;;89.10;16.48;;;0.70;99.90;;;;;;5077118;28;20016;-70
2022/11/14 02:37:33;;;;;;;77.55;14.95;;;0.70;99.90;;;;;;5077423;28;20025;-69
2022/11/14 02:40:00;;;;;;;175.88;18.23;;;0.70;99.90;;;;;;5077432;28;20297;-70
2022/11/14 02:42:28;;;;;;;145.30;19.35;;;0.70;99.90;;;;;;5059734;28;20428;-70
2022/11/14 02:44:58;;;;;;;100.90;16.52;;;0.70;99.90;;;;;;5077576;28;20375;-69
2022/11/14 02:47:25;;;;;;;72.40;15.10;;;0.70;99.90;;;;;;5077466;28;20020;-69
2022/11/14 02:49:52;;;;;;;76.85;14.63;;;0.70;99.90;;;;;;5077200;28;20370;-69
2022/11/14 02:52:19;;;;;;;113.43;16.35;;;0.70;99.90;;;;;;5077712;28;20020;-69
2022/11/14 02:54:47;;;;;;;96.15;17.08;;;0.70;99.90;;;;;;5077684;28;20351;-70
2022/11/14 02:57:14;;;;;;;89.13;18.75;;;0.80;99.90;;;;;;5077081;28;20408;-70
2022/11/14 02:59:41;;;;;;;95.25;16.90;;;0.80;99.90;;;;;;5077016;28;20481;-70
2022/11/14 03:02:08;;;;;;;111.53;16.17;;;0.80;99.90;;;;;;5077472;28;20063;-70
2022/11/14 03:04:36;;;;;;;115.15;17.55;;;0.80;99.90;;;;;;5076937;28;20052;-70
2022/11/14 03:07:03;;;;;;;57.97;15.60;;;0.80;99.90;;;;;;5077226;28;20020;-70
2022/11/14 03:09:31;;;;;;;51.33;17.23;;;0.90;99.90;;;;;;5077428;28;20036;-70
2022/11/14 03:11:58;;;;;;;61.83;15.73;;;0.80;99.90;;;;;;5076893;28;20100;-70
2022/11/14 03:14:25;;;;;;;51.83;16.50;;;0.80;99.90;;;;;;5076828;28;20043;-69
2022/11/14 03:16:55;;;;;;;61.22;15.70;;;0.80;99.90;;;;;;5077125;28;20309;-69
2022/11/14 03:19:23;;;;;;;49.95;15.15;;;0.80;99.90;;;;;;5077270;28;20028;-69
2022/11/14 03:21:50;;;;;;;51.13;16.45;;;0.80;99.90;;;;;;5077285;28;20036;-70
2022/11/14 03:24:17;;;;;;;46.78;14.05;;;0.70;99.90;;;;;;5076657;28;20024;-70
2022/11/14 03:26:45;;;;;;;46.78;16.48;;;0.60;99.90;;;;;;5076746;28;20408;-70
2022/11/14 03:29:12;;;;;;;44.03;15.20;;;0.60;99.90;;;;;;5076864;28;20476;-69
2022/11/14 03:31:40;;;;;;;55.05;15.75;;;0.60;99.90;;;;;;5077140;28;20020;-70
2022/11/14 03:34:08;;;;;;;42.42;16.10;;;0.50;99.90;;;;;;5077121;28;20013;-70
2022/11/14 03:36:36;;;;;;;123.45;18.23;;;0.40;99.90;;;;;;5076560;28;20016;-70
2022/11/14 03:39:04;;;;;;;103.07;17.42;;;0.40;99.90;;;;;;5076782;28;20048;-70
2022/11/14 03:41:31;;;;;;;85.32;15.35;;;0.40;99.90;;;;;;5059592;28;20028;-69
2022/11/14 03:43:58;;;;;;;85.22;15.38;;;0.30;99.90;;;;;;5077046;28;20024;-70
2022/11/14 03:46:26;;;;;;;86.75;17.48;;;0.30;99.90;;;;;;5076476;28;20389;-69
2022/11/14 03:48:54;;;;;;;81.30;16.88;;;0.30;99.90;;;;;;5076587;28;20424;-70
2022/11/14 03:51:21;;;;;;;112.90;18.83;;;0.20;99.90;;;;;;5076657;28;20150;-70
2022/11/14 03:53:48;;;;;;;126.63;18.42;;;0.20;99.90;;;;;;5058610;28;20017;-70
2022/11/14 03:56:16;;;;;;;108.65;18.20;;;0.20;99.90;;;;;;5076894;28;20028;-70
2022/11/14 03:58:43;;;;;;;128.23;17.83;;;0.20;99.90;;;;;;5076494;28;20036;-69
2022/11/14 04:01:11;;;;;;;125.90;19.92;;;0.20;99.90;;;;;;5076522;28;20359;-69
2022/11/14 04:03:38;;;;;;;110.28;18.23;;;0.20;99.90;;;;;;5075963;28;20053;-69
2022/11/14 04:06:06;;;;;;;69.43;17.88;;;0.10;99.90;;;;;;5058347;28;20119;-70
2022/11/14 04:08:33;;;;;;;72.88;17.02;;;0.10;99.90;;;;;;5076956;28;20023;-70
2022/11/14 04:11:00;;;;;;;98.70;19.17;;;0.10;99.90;;;;;;5058424;28;20016;-70
2022/11/14 04:13:28;;;;;;;77.80;18.77;;;0.10;99.90;;;;;;5076738;28;20091;-70
2022/11/14 04:15:59;;;;;;;132.00;20.27;;;0.20;99.90;;;;;;5058310;28;20128;-70
2022/11/14 04:18:27;;;;;;;88.53;19.13;;;0.10;99.90;;;;;;5076248;28;20065;-70
2022/11/14 04:20:54;;;;;;;64.72;19.10;;;0.10;99.90;;;;;;5076160;28;20028;-69
2022/11/14 04:23:22;;;;;;;51.08;16.92;;;0.10;99.90;;;;;;5076676;28;20359;-70
2022/11/14 04:25:49;;;;;;;77.30;17.55;;;0.10;99.90;;;;;;5058685;28;20353;-69
2022/11/14 04:28:16;;;;;;;49.85;17.10;;;0.00;99.90;;;;;;5076449;28;20026;-69
2022/11/14 04:30:47;;;;;;;104.10;20.15;;;0.00;99.90;;;;;;5076030;28;20027;-69
2022/11/14 04:33:14;;;;;;;69.20;19.55;;;0.00;99.90;;;;;;5075869;28;20029;-70
2022/11/14 04:35:42;;;;;;;117.05;20.15;;;0.00;99.90;;;;;;5075918;28;20028;-69
2022/11/14 04:38:09;;;;;;;104.22;19.02;;;0.00;99.90;;;;;;5075845;28;20120;-70
2022/11/14 04:40:37;;;;;;;96.85;19.20;;;0.00;99.90;;;;;;5076278;28;20091;-69
2022/11/14 04:43:04;;;;;;;123.65;18.98;;;0.00;99.90;;;;;;5076602;28;20074;-70
2022/11/14 04:45:32;;;;;;;120.97;20.63;;;0.00;99.90;;;;;;5057992;28;20036;-70
2022/11/14 04:47:59;;;;;;;120.32;19.40;;;0.00;99.90;;;;;;5058084;28;20025;-69
2022/11/14 04:50:27;;;;;;;177.77;24.08;;;0.00;99.90;;;;;;5076359;28;20017;-70
2022/11/14 04:52:55;;;;;;;207.88;24.00;;;0.10;99.90;;;;;;5076570;28;20053;-70
2022/11/14 04:55:23;;;;;;;151.18;21.83;;;0.10;99.90;;;;;;5076375;28;20082;-70
2022/11/14 04:57:55;;;;;;;183.75;26.52;;;0.10;99.90;;;;;;5075722;28;20020;-70
2022/11/14 05:00:23;;;;;;;101.22;22.10;;;0.20;99.90;;;;;;5078866;28;20020;-70
2022/11/14 05:02:51;;;;;;;130.48;21.08;;;0.10;99.90;;;;;;5079172;28;20467;-70
2022/11/14 05:05:18;;;;;;;126.90;21.75;;;0.10;99.90;;;;;;5079189;28;20367;-69
2022/11/14 05:07:46;;;;;;;126.47;19.98;;;0.10;99.90;;;;;;5079205;28;20114;-69
2022/11/14 05:10:13;;;;;;;95.70;19.73;;;0.10;99.90;;;;;;5079414;28;20025;-70
2022/11/14 05:12:40;;;;;;;202.18;24.17;;;0.10;99.90;;;;;;5079663;28;20021;-70
2022/11/14 05:15:08;;;;;;;124.63;21.30;;;0.10;99.90;;;;;;5079084;28;20079;-70
2022/11/14 05:17:36;;;;;;;111.68;21.23;;;0.00;99.90;;;;;;5078963;28;20030;-69
2022/11/14 05:20:03;;;;;;;89.85;19.90;;;0.00;99.90;;;;;;5078937;28;20037;-70
2022/11/14 05:22:30;;;;;;;61.15;17.85;;;0.00;99.90;;;;;;5061146;28;20029;-70
2022/11/14 05:24:58;;;;;;;55.33;19.10;;;-0.10;99.90;;;;;;5079487;28;20028;-70
2022/11/14 05:27:25;;;;;;;59.30;17.92;;;-0.10;99.90;;;;;;5078957;28;20099;-69
2022/11/14 05:29:54;;;;;;;72.90;18.15;;;-0.10;99.90;;;;;;5078798;28;20020;-70
2022/11/14 05:32:21;;;;;;;103.43;18.98;;;-0.20;99.90;;;;;;5078668;28;20320;-69
2022/11/14 05:34:48;;;;;;;61.65;17.58;;;-0.20;99.90;;;;;;5079046;28;20051;-69
2022/11/14 05:37:16;;;;;;;92.50;18.98;;;-0.20;99.90;;;;;;5078803;28;20439;-70
2022/11/14 05:39:43;;;;;;;55.47;17.50;;;-0.30;99.90;;;;;;5078542;28;20086;-70
2022/11/14 05:42:11;;;;;;;64.07;18.08;;;-0.30;99.90;;;;;;5078588;28;20429;-70
2022/11/14 05:44:38;;;;;;;56.85;17.05;;;-0.30;99.90;;;;;;5079090;28;20020;-72
2022/11/14 05:47:06;;;;;;;58.38;17.85;;;-0.30;99.90;;;;;;5078873;28;20024;-72
2022/11/14 05:49:33;;;;;;;65.20;17.40;;;-0.30;99.90;;;;;;5078341;28;20439;-72
2022/11/14 05:52:01;;;;;;;59.63;18.30;;;-0.30;99.90;;;;;;5078937;28;20102;-70
2022/11/14 05:54:29;;;;;;;51.67;17.00;;;-0.30;99.90;;;;;;5078895;28;20017;-70
2022/11/14 05:56:57;;;;;;;56.28;17.20;;;-0.30;99.90;;;;;;5061099;28;20021;-70
2022/11/14 05:59:24;;;;;;;52.47;16.17;;;-0.30;99.90;;;;;;5078486;28;20104;-70
2022/11/14 06:01:51;;;;;;;53.33;16.15;;;-0.30;99.90;;;;;;5077105;28;20032;-69
2022/11/14 06:04:19;;;;;;;47.65;17.52;;;-0.30;99.90;;;;;;5078107;28;20322;-70
2022/11/14 06:06:46;;;;;;;64.45;17.60;;;-0.40;99.90;;;;;;5078132;28;20078;-70
2022/11/14 06:09:13;;;;;;;54.95;18.63;;;-0.30;99.90;;;;;;5078009;28;20413;-70
2022/11/14 06:11:41;;;;;;;57.00;17.85;;;-0.40;99.90;;;;;;5042596;28;20104;-69
2022/11/14 06:14:08;;;;;;;87.63;21.42;;;-0.40;99.90;;;;;;5078495;28;20017;-69
2022/11/14 06:16:35;;;;;;;71.95;19.15;;;-0.40;99.90;;;;;;5060203;28;20060;-70
2022/11/14 06:19:04;;;;;;;72.75;17.77;;;-0.40;99.90;;;;;;5078398;28;20082;-69
2022/11/14 06:21:31;;;;;;;65.88;18.30;;;-0.40;99.90;;;;;;5078780;28;20390;-70
2022/11/14 06:23:58;;;;;;;75.32;19.00;;;-0.40;99.90;;;;;;5078030;28;20081;-70
2022/11/14 06:26:32;;;;;;;84.05;20.52;;;-0.40;99.90;;;;;;5077623;28;20025;-69
2022/11/14 06:29:00;;;;;;;73.70;20.85;;;-0.40;99.90;;;;;;5077907;28;20025;-69
2022/11/14 06:31:27;;;;;;;70.30;21.08;;;-0.50;99.90;;;;;;5078078;28;20023;-70
2022/11/14 06:33:55;;;;;;;66.13;19.02;;;-0.50;99.90;;;;;;5077427;28;20028;-71
2022/11/14 06:36:23;;;;;;;72.70;21.13;;;-0.50;99.90;;;;;;5077366;28;20028;-70
2022/11/14 06:38:50;;;;;;;70.45;19.60;;;-0.50;99.90;;;;;;5077999;28;20464;-70
2022/11/14 06:41:19;;;;;;;81.63;22.77;;;-0.50;99.90;;;;;;5078087;28;20309;-69
2022/11/14 06:43:49;;;;;;;78.93;22.50;;;-0.50;99.90;;;;;;5077803;28;20028;-70
2022/11/14 06:46:19;;;;;;;83.03;23.48;;;-0.40;99.90;;;;;;5077159;28;20029;-69
2022/11/14 06:48:47;;;;;;;70.50;20.17;;;-0.40;99.90;;;;;;5077235;28;20047;-69
2022/11/14 06:51:16;;;;;;;87.00;23.00;;;-0.40;99.90;;;;;;5059481;28;20025;-70
2022/11/14 06:53:44;;;;;;;72.30;19.63;;;-0.30;99.90;;;;;;5059612;28;20416;-70
2022/11/14 06:56:19;;;;;;;79.70;21.15;;;-0.30;99.90;;;;;;5077657;28;20025;-71
2022/11/14 06:58:48;;;;;;;74.88;21.00;;;-0.30;99.90;;;;;;5077019;28;20028;-79
2022/11/14 07:01:20;;;;;;;86.50;20.67;;;-0.30;99.90;;;;;;5077043;28;20028;-72
2022/11/14 07:03:48;;;;;;;76.00;20.20;;;-0.20;99.90;;;;;;5076840;28;20061;-74
2022/11/14 07:06:19;;;;;;;78.20;22.30;;;-0.20;99.90;;;;;;5059159;28;20328;-71
2022/11/14 07:08:46;;;;;;;81.07;22.33;;;-0.20;99.90;;;;;;5077525;28;20104;-74
2022/11/14 07:11:22;;;;;;;97.25;25.13;;;-0.10;99.90;;;;;;5077438;28;20020;-75
2022/11/14 07:13:54;;;;;;;102.93;28.38;;;-0.10;99.90;;;;;;5077331;28;20031;-76
2022/11/14 07:16:29;;;;;;;91.93;26.92;;;-0.10;99.90;;;;;;5076833;28;20025;-75
2022/11/14 07:19:00;;;;;;;94.68;26.67;;;-0.10;99.90;;;;;;5077115;28;20102;-76
2022/11/14 07:21:29;;;;;;;94.78;25.58;;;0.00;99.90;;;;;;5058646;28;20329;-75
2022/11/14 07:23:57;;;;;;;86.47;22.35;;;0.00;99.90;;;;;;5077194;28;20024;-75
2022/11/14 07:26:25;;;;;;;88.63;23.13;;;0.00;99.90;;;;;;5076634;28;20024;-76
2022/11/14 07:28:54;;;;;;;85.47;24.70;;;0.00;99.90;;;;;;5058918;28;20166;-75
2022/11/14 07:31:21;;;;;;;72.10;23.10;;;0.10;99.90;;;;;;5076672;28;20409;-75
2022/11/14 07:33:48;;;;;;;87.45;27.00;;;0.10;99.90;;;;;;5076754;28;20538;-75
2022/11/14 07:36:16;;;;;;;101.25;24.48;;;0.10;99.90;;;;;;5076857;28;20025;-74
2022/11/14 07:38:44;;;;;;;104.78;28.63;;;0.10;99.90;;;;;;5077158;28;20044;-77
2022/11/14 07:41:15;;;;;;;104.55;28.52;;;0.20;99.90;;;;;;5076827;28;20024;-74
2022/11/14 07:43:43;;;;;;;103.40;29.83;;;0.20;99.90;;;;;;5076867;28;20024;-74
2022/11/14 07:46:18;;;;;;;107.82;29.58;;;0.20;99.90;;;;;;5076678;28;20032;-74
2022/11/14 07:48:46;;;;;;;99.70;34.58;;;0.30;99.90;;;;;;5076406;28;20439;-74
2022/11/14 07:51:19;;;;;;;115.22;35.97;;;0.30;99.90;;;;;;5076695;28;20031;-75
2022/11/14 07:53:46;;;;;;;96.95;32.22;;;0.30;99.90;;;;;;5058464;28;20444;-76
2022/11/14 07:56:15;;;;;;;92.93;29.17;;;0.40;99.90;;;;;;5076314;28;20324;-74
2022/11/14 07:58:43;;;;;;;84.18;25.00;;;0.40;99.90;;;;;;5076613;28;20412;-74
2022/11/14 08:01:12;;;;;;;79.63;24.00;;;0.50;99.90;;;;;;5058570;28;20094;-72
2022/11/14 08:03:40;;;;;;;77.13;24.17;;;0.60;99.90;;;;;;5076162;28;20079;-72
2022/11/14 08:06:10;;;;;;;94.60;24.83;;;0.70;99.90;;;;;;5076459;28;20016;-72
2022/11/14 08:08:38;;;;;;;83.32;23.58;;;0.80;99.90;;;;;;5076727;28;20020;-72
2022/11/14 08:11:05;;;;;;;107.45;25.98;;;1.00;99.90;;;;;;5076251;28;20016;-72
2022/11/14 08:13:33;;;;;;;97.55;26.05;;;1.10;99.90;;;;;;5076486;28;20027;-72
2022/11/14 08:16:10;;;;;;;97.55;27.80;;;1.30;99.90;;;;;;5076505;28;20301;-72
2022/11/14 08:18:37;;;;;;;95.53;25.63;;;1.40;99.90;;;;;;5076244;28;20332;-72
2022/11/14 08:21:05;;;;;;;109.03;27.13;;;1.50;99.90;;;;;;5076117;28;20108;-71
2022/11/14 08:23:33;;;;;;;99.93;25.92;;;1.70;99.90;;;;;;5076692;28;20313;-72
2022/11/14 08:26:00;;;;;;;103.47;27.15;;;1.80;99.90;;;;;;5076301;28;20021;-71
2022/11/14 08:28:28;;;;;;;107.35;27.77;;;2.00;99.90;;;;;;5076790;28;20017;-71
2022/11/14 08:31:03;;;;;;;104.65;28.05;;;2.10;99.90;;;;;;5076047;28;20062;-71
2022/11/14 08:33:31;;;;;;;101.95;26.80;;;2.20;99.90;;;;;;5058225;28;20081;-71
2022/11/14 08:36:02;;;;;;;93.28;26.67;;;2.30;99.90;;;;;;5080098;28;20056;-71
2022/11/14 08:38:31;;;;;;;97.25;28.27;;;2.40;99.90;;;;;;5080518;28;20048;-72
2022/11/14 08:40:59;;;;;;;92.15;28.33;;;2.50;99.90;;;;;;5079760;28;20020;-71
2022/11/14 08:43:27;;;;;;;91.72;25.85;;;2.50;99.90;;;;;;5079953;28;20031;-73
2022/11/14 08:46:03;;;;;;;86.88;25.23;;;2.60;99.90;;;;;;5079530;28;20102;-73
2022/11/14 08:48:31;;;;;;;82.75;25.95;;;2.70;99.90;;;;;;5079821;28;20025;-76
2022/11/14 08:51:05;;;;;;;93.00;26.23;;;2.70;99.90;;;;;;5079512;28;20550;-72
2022/11/14 08:53:33;;;;;;;87.95;27.23;;;2.80;99.90;;;;;;5080038;28;20035;-72
2022/11/14 08:56:01;;;;;;;79.53;24.88;;;2.90;99.90;;;;;;5079436;28;20142;-72
2022/11/14 08:58:30;;;;;;;79.10;24.00;;;3.00;99.90;;;;;;5079556;28;20424;-72
2022/11/14 09:01:05;;;;;;;85.55;24.92;;;3.10;99.90;;;;;;5079337;28;20036;-72
2022/11/14 09:03:33;;;;;;;78.80;25.25;;;3.10;99.90;;;;;;5079056;28;20052;-72
2022/11/14 09:06:02;;;;;;;68.82;23.40;;;3.20;99.90;;;;;;5079103;28;20371;-72
2022/11/14 09:08:30;;;;;;;79.93;24.23;;;3.30;99.90;;;;;;5079757;28;20028;-72
2022/11/14 09:11:07;;;;;;;81.32;23.52;;;3.40;99.90;;;;;;5079160;28;20078;-72
2022/11/14 09:13:35;;;;;;;77.80;24.48;;;3.50;99.90;;;;;;5061268;28;20021;-72
2022/11/14 09:16:04;;;;;;;64.45;22.55;;;3.60;99.90;;;;;;5079346;28;20567;-72
2022/11/14 09:18:31;;;;;;;75.70;24.65;;;3.70;99.90;;;;;;5078934;28;20486;-73
2022/11/14 09:21:05;;;;;;;63.00;22.58;;;3.70;99.90;;;;;;5061332;28;20024;-74
2022/11/14 09:23:33;;;;;;;67.10;22.90;;;3.90;99.90;;;;;;5079415;28;20028;-73
2022/11/14 09:26:08;;;;;;;62.13;22.52;;;4.00;99.90;;;;;;5078695;28;20103;-72
2022/11/14 09:28:36;;;;;;;47.05;18.50;;;4.00;99.90;;;;;;5079189;28;20051;-74
2022/11/14 09:31:06;;;;;;;61.97;23.80;;;4.10;99.90;;;;;;5079059;28;20035;-74
2022/11/14 09:33:35;;;;;;;62.03;23.20;;;4.10;99.90;;;;;;5079398;28;20020;-72
2022/11/14 09:36:06;;;;;;;56.65;22.33;;;4.20;99.90;;;;;;5078689;28;20028;-72
2022/11/14 09:38:34;;;;;;;54.78;20.58;;;4.30;99.90;;;;;;5079247;28;20044;-72
2022/11/14 09:41:25;;;;;;;64.70;25.38;;;4.30;99.90;;;;;;5079160;28;20024;-72
2022/11/14 09:44:15;;;;;;;60.50;22.63;;;4.40;99.90;;;;;;5078773;28;20024;-72
2022/11/14 09:46:45;;;;;;;48.92;20.38;;;4.50;99.90;;;;;;5078413;28;20190;-72
2022/11/14 09:49:31;;;;;;;50.15;20.92;;;4.60;99.90;;;;;;5078510;28;20016;-74
2022/11/14 09:52:29;;;;;;;52.88;21.42;;;4.60;99.90;;;;;;5078625;28;20025;-74
2022/11/14 09:55:01;;;;;;;45.72;18.83;;;4.70;99.90;;;;;;5073304;28;20063;-74
2022/11/14 09:57:29;;;;;;;48.03;18.80;;;4.80;99.90;;;;;;5078440;28;20017;-74
2022/11/14 09:59:56;;;;;;;46.47;19.83;;;4.80;99.90;;;;;;5078749;28;20024;-72
2022/11/14 10:02:47;;;;;;;43.38;19.20;;;4.90;99.90;;;;;;5078931;28;20408;-74
2022/11/14 10:05:18;;;;;;;46.85;18.38;;;5.00;99.90;;;;;;5079340;28;20040;-76
2022/11/14 10:08:23;;;;;;;40.10;17.60;;;5.00;99.90;;;;;;5078860;28;20082;-75
2022/11/14 10:10:53;;;;;;;39.08;17.17;;;5.10;99.90;;;;;;5078077;28;20016;-74
2022/11/14 10:13:43;;;;;;;40.00;18.10;;;5.10;99.90;;;;;;5077089;28;20111;-76
2022/11/14 10:16:47;;;;;;;34.65;15.98;;;5.20;99.90;;;;;;5078218;28;20025;-75
2022/11/14 10:19:18;;;;;;;28.63;15.75;;;5.20;99.90;;;;;;5078148;28;20025;-76
2022/11/14 10:22:05;;;;;;;33.40;15.57;;;5.40;99.90;;;;;;5078047;28;20096;-72
2022/11/14 10:24:53;;;;;;;26.77;14.05;;;5.50;99.90;;;;;;5078308;28;20037;-74
2022/11/14 10:27:54;;;;;;;29.92;14.95;;;5.60;99.90;;;;;;5078177;28;20028;-74
2022/11/14 10:30:29;;;;;;;23.52;12.88;;;5.70;99.90;;;;;;5050178;28;20036;-72
2022/11/14 10:33:23;;;;;;;22.63;12.07;;;5.80;99.90;;;;;;5077797;28;20137;-74
2022/11/14 10:36:21;;;;;;;19.25;11.23;;;6.00;99.90;;;;;;5077542;28;20082;-74
2022/11/14 10:39:03;;;;;;;20.52;10.63;;;6.20;99.90;;;;;;5059942;28;20039;-74
2022/11/14 10:41:31;;;;;;;17.27;9.50;;;6.30;99.90;;;;;;5077432;28;20020;-74
2022/11/14 10:44:00;;;;;;;20.70;9.93;;;6.40;99.90;;;;;;5077696;28;20043;-74
2022/11/14 10:46:42;;;;;;;17.77;9.25;;;6.50;99.90;;;;;;5077192;28;20028;-74
2022/11/14 10:49:22;;;;;;;18.75;10.13;;;6.60;99.90;;;;;;5077565;28;20048;-74
2022/11/14 10:52:01;;;;;;;17.90;10.20;;;6.70;99.90;;;;;;5077270;28;20024;-71
2022/11/14 10:54:51;;;;;;;15.95;10.23;;;6.80;99.90;;;;;;5077178;28;20017;-72
2022/11/14 10:57:20;;;;;;;18.27;10.30;;;6.90;99.90;;;;;;5076944;28;20420;-74
2022/11/14 10:59:49;;;;;;;18.73;9.85;;;7.10;99.90;;;;;;5077077;28;20077;-75
2022/11/14 11:02:17;;;;;;;17.38;9.63;;;7.20;99.90;;;;;;5077018;28;20021;-74
2022/11/14 11:04:45;;;;;;;18.88;10.07;;;7.30;99.90;;;;;;5076751;28;20041;-74
2022/11/14 11:13:04;;;;;;;18.58;9.30;;;7.50;99.90;;;;;;5077215;28;20359;-72
2022/11/14 11:15:39;;;;;;;16.17;9.05;;;7.60;99.90;;;;;;5077419;28;20051;-72
2022/11/14 11:18:28;;;;;;;19.60;7.77;;;7.60;99.90;;;;;;5077454;28;20017;-73
2022/11/14 11:21:13;;;;;;;13.75;8.63;;;7.70;99.90;;;;;;5077523;28;20023;-71
2022/11/14 11:23:56;;;;;;;17.02;8.73;;;7.80;99.90;;;;;;5076786;28;20053;-75
2022/11/14 11:26:31;;;;;;;15.20;8.15;;;7.90;99.90;;;;;;5058880;28;20310;-74
2022/11/14 11:29:15;;;;;;;13.98;8.07;;;8.00;99.90;;;;;;5076721;28;20048;-76
2022/11/14 11:31:53;;;;;;;13.55;8.02;;;8.10;99.90;;;;;;5058822;28;20075;-75
2022/11/14 11:34:26;;;;;;;13.55;8.10;;;8.20;99.90;;;;;;5076774;28;20029;-75
2022/11/14 11:37:13;;;;;;;14.48;8.40;;;8.20;99.90;;;;;;5076621;28;20083;-76
2022/11/14 11:39:53;;;;;;;13.35;8.57;;;8.30;99.90;;;;;;5058779;28;20425;-76
2022/11/14 11:42:27;;;;;;;13.63;7.95;;;8.30;99.90;;;;;;5075624;28;20067;-73
2022/11/14 11:44:59;;;;;;;14.23;8.00;;;8.50;99.90;;;;;;5076797;28;20363;-73
2022/11/14 11:47:34;;;;;;;12.25;7.13;;;8.60;99.90;;;;;;5076954;28;20025;-73
2022/11/14 11:50:02;;;;;;;14.00;7.47;;;8.70;99.90;;;;;;5076482;28;20099;-70
2022/11/14 11:52:41;;;;;;;15.48;9.20;;;8.70;99.90;;;;;;5076919;28;20428;-71
2022/11/14 11:55:09;;;;;;;11.63;5.68;;;8.80;99.90;;;;;;5077273;28;20025;-74
2022/11/14 11:57:47;;;;;;;14.57;8.65;;;8.80;99.90;;;;;;5076732;28;20085;-75
2022/11/14 12:00:33;;;;;;;13.60;7.35;;;8.90;99.90;;;;;;5076674;28;20025;-73
2022/11/14 12:03:01;;;;;;;13.45;7.35;;;8.90;99.90;;;;;;5076268;28;20044;-74
2022/11/14 12:06:03;;;;;;;13.77;7.32;;;9.00;99.90;;;;;;5075282;28;20424;-75
2022/11/14 12:08:53;;;;;;;12.23;7.30;;;9.10;99.90;;;;;;5078081;28;20028;-74
2022/11/14 12:11:25;;;;;;;15.13;8.25;;;9.10;99.90;;;;;;5062893;28;20363;-75
2022/11/14 12:14:23;;;;;;;15.68;8.32;;;9.10;99.90;;;;;;5080452;28;20443;-74
2022/11/14 12:17:32;;;;;;;13.05;7.45;;;9.10;99.90;;;;;;5080557;28;20021;-74
2022/11/14 12:20:33;;;;;;;12.82;7.15;;;9.20;99.90;;;;;;5080464;28;20100;-74
2022/11/14 12:23:30;;;;;;;13.30;6.78;;;9.20;99.90;;;;;;5080323;28;20368;-75
2022/11/14 12:25:57;;;;;;;;;;;9.20;99.90;;;;;;5062615;28;20028;-75
2022/11/14 12:28:57;;;;;;;11.10;6.47;;;9.40;99.90;;;;;;5062263;28;19911;-75
2022/11/14 12:31:33;;;;;;;14.55;6.85;;;9.40;99.90;;;;;;5081028;28;20025;-74
2022/11/14 12:34:29;;;;;;;11.98;7.20;;;9.40;99.90;;;;;;5079923;28;20066;-71
2022/11/14 12:36:57;;;;;;;10.63;6.60;;;9.40;99.90;;;;;;5062115;28;20028;-76
2022/11/14 12:39:27;;;;;;;11.95;7.25;;;9.40;99.90;;;;;;5062072;28;20031;-75
2022/11/14 12:42:07;;;;;;;10.88;6.53;;;9.40;99.90;;;;;;5080458;28;20048;-75
2022/11/14 12:44:37;;;;;;;10.60;6.75;;;9.40;99.90;;;;;;5079726;28;20032;-73
2022/11/14 12:47:04;;;;;;;12.00;7.10;;;9.40;99.90;;;;;;5080455;28;20296;-72
2022/11/14 12:49:53;;;;;;;14.65;7.38;;;9.30;99.90;;;;;;5079833;28;20044;-71
2022/11/14 12:52:53;;;;;;;10.23;6.72;;;9.30;99.90;;;;;;5080120;28;20048;-71
2022/11/14 12:55:24;;;;;;;11.88;6.32;;;9.30;99.90;;;;;;5079514;28;20417;-71
2022/11/14 12:58:10;;;;;;;11.38;5.97;;;9.30;99.90;;;;;;5080032;28;20040;-71
2022/11/14 13:00:50;;;;;;;15.15;7.68;;;9.30;99.90;;;;;;5079883;28;20048;-71
2022/11/14 13:03:24;;;;;;;12.20;6.80;;;9.40;99.90;;;;;;5079510;28;20080;-71